QFA123 YSSY-YMML
Flight info
| Callsign | QFA123 |
|---|---|
| Flight time | 1h 5m |
| Altitude | 36000 |
| Route | WOL H65 LEECE Q29 ML |
| Aircraft | B772/H-SDE2E3FGHIJ5LORVWXY/LB1D1 |
Departure
| Time | 2026-05-06 06:51 |
|---|---|
| Airport | Sydney Kingsford Smith International Airport (YSSY) |
Arrival
| Time | 2026-05-06 07:56 |
|---|---|
| Airport | Melbourne Airport (YMML) |
| Time | Latitude | Longitude | Altitude | Speed | Heading |
|---|---|---|---|---|---|
| 2026-05-06 06:17 | -33.93092 | 151.17624 | 41 ft | 0 kts | 167° |
| 2026-05-06 06:36 | -33.93090 | 151.17622 | 41 ft | 1 kts | 167° |
| 2026-05-06 06:37 | -33.93075 | 151.17619 | 41 ft | 2 kts | 185° |
| 2026-05-06 06:37 | -33.93061 | 151.17624 | 41 ft | 2 kts | 203° |
| 2026-05-06 06:37 | -33.93048 | 151.17633 | 41 ft | 2 kts | 220° |
| 2026-05-06 06:37 | -33.93037 | 151.17645 | 41 ft | 2 kts | 238° |
| 2026-05-06 06:38 | -33.93031 | 151.17662 | 41 ft | 2 kts | 256° |
| 2026-05-06 06:38 | -33.93029 | 151.17679 | 41 ft | 2 kts | 273° |
| 2026-05-06 06:38 | -33.93032 | 151.17697 | 41 ft | 2 kts | 290° |
| 2026-05-06 06:38 | -33.93035 | 151.17706 | 41 ft | 1 kts | 301° |
| 2026-05-06 06:39 | -33.93037 | 151.17709 | 41 ft | 0 kts | 300° |
| 2026-05-06 06:39 | -33.93036 | 151.17709 | 41 ft | 0 kts | 300° |
| 2026-05-06 06:42 | -33.93030 | 151.17694 | 41 ft | 4 kts | 295° |
| 2026-05-06 06:42 | -33.93015 | 151.17638 | 41 ft | 9 kts | 279° |
| 2026-05-06 06:42 | -33.92998 | 151.17543 | 41 ft | 13 kts | 281° |
| 2026-05-06 06:43 | -33.92976 | 151.17413 | 41 ft | 17 kts | 281° |
| 2026-05-06 06:43 | -33.92965 | 151.17342 | 41 ft | 8 kts | 281° |
| 2026-05-06 06:43 | -33.92962 | 151.17325 | 41 ft | 0 kts | 281° |
| 2026-05-06 06:47 | -33.92960 | 151.17314 | 41 ft | 3 kts | 281° |
| 2026-05-06 06:47 | -33.92958 | 151.17262 | 41 ft | 8 kts | 267° |
| 2026-05-06 06:47 | -33.92969 | 151.17191 | 41 ft | 8 kts | 232° |
| 2026-05-06 06:48 | -33.93031 | 151.17181 | 41 ft | 9 kts | 167° |
| 2026-05-06 06:48 | -33.93040 | 151.17183 | 41 ft | 0 kts | 167° |
| 2026-05-06 06:50 | -33.93098 | 151.17198 | 41 ft | 35 kts | 168° |
| 2026-05-06 06:50 | -33.93751 | 151.17369 | 44 ft | 148 kts | 167° |
| 2026-05-06 06:51 | -33.94875 | 151.17621 | 861 ft | 176 kts | 172° |
| 2026-05-06 06:51 | -33.96048 | 151.17645 | 2214 ft | 182 kts | 179° |
| 2026-05-06 06:51 | -33.97335 | 151.17616 | 3508 ft | 198 kts | 181° |
| 2026-05-06 06:51 | -33.98715 | 151.17584 | 4503 ft | 205 kts | 182° |
| 2026-05-06 06:52 | -34.00213 | 151.17546 | 4921 ft | 234 kts | 183° |
| 2026-05-06 06:52 | -34.01975 | 151.17506 | 4958 ft | 264 kts | 181° |
| 2026-05-06 06:52 | -34.03840 | 151.17847 | 4955 ft | 277 kts | 167° |
| 2026-05-06 06:52 | -34.05784 | 151.18500 | 5421 ft | 294 kts | 165° |
| 2026-05-06 06:53 | -34.07677 | 151.19151 | 6678 ft | 286 kts | 167° |
| 2026-05-06 06:53 | -34.09595 | 151.19798 | 7665 ft | 289 kts | 167° |
| 2026-05-06 06:53 | -34.11530 | 151.20445 | 8556 ft | 295 kts | 167° |
| 2026-05-06 06:53 | -34.13532 | 151.21114 | 9503 ft | 297 kts | 167° |
| 2026-05-06 06:54 | -34.15518 | 151.21756 | 10350 ft | 303 kts | 170° |
| 2026-05-06 06:54 | -34.17661 | 151.22064 | 10927 ft | 317 kts | 182° |
| 2026-05-06 06:54 | -34.19902 | 151.21819 | 11506 ft | 330 kts | 195° |
| 2026-05-06 06:54 | -34.22134 | 151.20953 | 12122 ft | 342 kts | 208° |
| 2026-05-06 06:55 | -34.24199 | 151.19470 | 12731 ft | 353 kts | 221° |
| 2026-05-06 06:55 | -34.25985 | 151.17374 | 13343 ft | 363 kts | 234° |
| 2026-05-06 06:55 | -34.27362 | 151.14798 | 13971 ft | 375 kts | 241° |
| 2026-05-06 06:55 | -34.28810 | 151.12146 | 14783 ft | 384 kts | 237° |
| 2026-05-06 06:56 | -34.30405 | 151.09546 | 15725 ft | 390 kts | 236° |
| 2026-05-06 06:56 | -34.32074 | 151.06970 | 16682 ft | 395 kts | 234° |
| 2026-05-06 06:56 | -34.33809 | 151.04369 | 17575 ft | 400 kts | 234° |
| 2026-05-06 06:56 | -34.35590 | 151.01753 | 18447 ft | 406 kts | 233° |
| 2026-05-06 06:57 | -34.37454 | 150.99158 | 19346 ft | 412 kts | 229° |
| 2026-05-06 06:57 | -34.39544 | 150.96783 | 20254 ft | 416 kts | 225° |
| 2026-05-06 06:57 | -34.41695 | 150.94431 | 21153 ft | 420 kts | 225° |
| 2026-05-06 06:57 | -34.43861 | 150.92070 | 21986 ft | 424 kts | 225° |
| 2026-05-06 06:58 | -34.46092 | 150.89639 | 22796 ft | 429 kts | 225° |
| 2026-05-06 06:58 | -34.48301 | 150.87233 | 23602 ft | 432 kts | 225° |
| 2026-05-06 06:58 | -34.50539 | 150.84796 | 24344 ft | 437 kts | 225° |
| 2026-05-06 06:58 | -34.52815 | 150.82317 | 25015 ft | 442 kts | 225° |
| 2026-05-06 06:59 | -34.55083 | 150.79778 | 25641 ft | 447 kts | 229° |
| 2026-05-06 06:59 | -34.57088 | 150.76872 | 26326 ft | 448 kts | 236° |
| 2026-05-06 06:59 | -34.58932 | 150.73851 | 27037 ft | 451 kts | 237° |
| 2026-05-06 06:59 | -34.60805 | 150.70752 | 27661 ft | 456 kts | 237° |
| 2026-05-06 07:00 | -34.62686 | 150.67631 | 28223 ft | 461 kts | 237° |
| 2026-05-06 07:00 | -34.64570 | 150.64502 | 28779 ft | 467 kts | 237° |
| 2026-05-06 07:00 | -34.66485 | 150.61319 | 29368 ft | 471 kts | 237° |
| 2026-05-06 07:00 | -34.68451 | 150.58050 | 30105 ft | 472 kts | 237° |
| 2026-05-06 07:01 | -34.70372 | 150.54855 | 30955 ft | 469 kts | 237° |
| 2026-05-06 07:01 | -34.72322 | 150.51608 | 31900 ft | 465 kts | 237° |
| 2026-05-06 07:01 | -34.74230 | 150.48427 | 32748 ft | 463 kts | 238° |
| 2026-05-06 07:01 | -34.76140 | 150.45239 | 33513 ft | 463 kts | 238° |
| 2026-05-06 07:02 | -34.78035 | 150.42075 | 34223 ft | 462 kts | 238° |
| 2026-05-06 07:02 | -34.79937 | 150.38896 | 34926 ft | 460 kts | 238° |
| 2026-05-06 07:02 | -34.81807 | 150.35768 | 35635 ft | 456 kts | 238° |
| 2026-05-06 07:02 | -34.83673 | 150.32642 | 35979 ft | 456 kts | 239° |
| 2026-05-06 07:03 | -34.85540 | 150.29512 | 36041 ft | 454 kts | 239° |
| 2026-05-06 07:03 | -34.89217 | 150.23340 | 36057 ft | 451 kts | 239° |
| 2026-05-06 07:04 | -34.92921 | 150.17108 | 36067 ft | 452 kts | 239° |
| 2026-05-06 07:04 | -34.96619 | 150.10877 | 36041 ft | 453 kts | 239° |
| 2026-05-06 07:05 | -35.00303 | 150.04658 | 36050 ft | 453 kts | 239° |
| 2026-05-06 07:05 | -35.03989 | 149.98425 | 36045 ft | 455 kts | 239° |
| 2026-05-06 07:06 | -35.07669 | 149.92192 | 36047 ft | 454 kts | 239° |
| 2026-05-06 07:06 | -35.11370 | 149.85910 | 36045 ft | 453 kts | 239° |
| 2026-05-06 07:07 | -35.15044 | 149.79665 | 36038 ft | 453 kts | 239° |
| 2026-05-06 07:07 | -35.18724 | 149.73396 | 36044 ft | 453 kts | 239° |
| 2026-05-06 07:08 | -35.22382 | 149.67156 | 36046 ft | 453 kts | 239° |
| 2026-05-06 07:08 | -35.26040 | 149.60902 | 36046 ft | 453 kts | 239° |
| 2026-05-06 07:09 | -35.29678 | 149.54672 | 36049 ft | 453 kts | 239° |
| 2026-05-06 07:09 | -35.33354 | 149.48367 | 36050 ft | 452 kts | 239° |
| 2026-05-06 07:10 | -35.37002 | 149.42099 | 36053 ft | 453 kts | 239° |
| 2026-05-06 07:10 | -35.40639 | 149.35838 | 36052 ft | 452 kts | 239° |
| 2026-05-06 07:11 | -35.44282 | 149.29556 | 36066 ft | 451 kts | 240° |
| 2026-05-06 07:11 | -35.47884 | 149.23332 | 36064 ft | 450 kts | 240° |
| 2026-05-06 07:12 | -35.51506 | 149.17064 | 36056 ft | 451 kts | 240° |
| 2026-05-06 07:12 | -35.55104 | 149.10825 | 36050 ft | 450 kts | 240° |
| 2026-05-06 07:13 | -35.58711 | 149.04559 | 36054 ft | 449 kts | 240° |
| 2026-05-06 07:13 | -35.62317 | 148.98283 | 36053 ft | 451 kts | 240° |
| 2026-05-06 07:14 | -35.65908 | 148.92024 | 36053 ft | 450 kts | 240° |
| 2026-05-06 07:14 | -35.69507 | 148.85739 | 36064 ft | 449 kts | 240° |
| 2026-05-06 07:15 | -35.73113 | 148.79430 | 36060 ft | 450 kts | 240° |
| 2026-05-06 07:15 | -35.76684 | 148.73169 | 36069 ft | 450 kts | 240° |
| 2026-05-06 07:16 | -35.80270 | 148.66873 | 36064 ft | 450 kts | 240° |
| 2026-05-06 07:16 | -35.83878 | 148.60525 | 36061 ft | 450 kts | 240° |
| 2026-05-06 07:17 | -35.87452 | 148.54227 | 36062 ft | 449 kts | 240° |
| 2026-05-06 07:17 | -35.91031 | 148.47891 | 36066 ft | 450 kts | 240° |
| 2026-05-06 07:18 | -35.94608 | 148.41539 | 36064 ft | 450 kts | 240° |
| 2026-05-06 07:18 | -35.98169 | 148.35204 | 36065 ft | 450 kts | 240° |
| 2026-05-06 07:19 | -36.01719 | 148.28876 | 36074 ft | 449 kts | 241° |
| 2026-05-06 07:19 | -36.05283 | 148.22511 | 36087 ft | 450 kts | 241° |
| 2026-05-06 07:20 | -36.08824 | 148.16177 | 36084 ft | 448 kts | 241° |
| 2026-05-06 07:20 | -36.12370 | 148.09824 | 36083 ft | 449 kts | 241° |
| 2026-05-06 07:21 | -36.15899 | 148.03516 | 36077 ft | 449 kts | 241° |
| 2026-05-06 07:21 | -36.19452 | 147.97154 | 36081 ft | 449 kts | 241° |
| 2026-05-06 07:22 | -36.22981 | 147.90822 | 36077 ft | 448 kts | 241° |
| 2026-05-06 07:22 | -36.26510 | 147.84479 | 36078 ft | 448 kts | 241° |
| 2026-05-06 07:23 | -36.30038 | 147.78125 | 36083 ft | 448 kts | 241° |
| 2026-05-06 07:23 | -36.33567 | 147.71758 | 36079 ft | 447 kts | 241° |
| 2026-05-06 07:24 | -36.37072 | 147.65408 | 36078 ft | 447 kts | 242° |
| 2026-05-06 07:24 | -36.40572 | 147.59052 | 36078 ft | 448 kts | 242° |
| 2026-05-06 07:25 | -36.44084 | 147.52666 | 36079 ft | 447 kts | 242° |
| 2026-05-06 07:25 | -36.47557 | 147.46338 | 36079 ft | 446 kts | 242° |
| 2026-05-06 07:26 | -36.51055 | 147.39951 | 36079 ft | 447 kts | 242° |
| 2026-05-06 07:26 | -36.54554 | 147.33551 | 36085 ft | 445 kts | 242° |
| 2026-05-06 07:27 | -36.58044 | 147.27156 | 36088 ft | 445 kts | 242° |
| 2026-05-06 07:27 | -36.61501 | 147.20810 | 36089 ft | 446 kts | 242° |
| 2026-05-06 07:28 | -36.64994 | 147.14386 | 36091 ft | 445 kts | 242° |
| 2026-05-06 07:28 | -36.70153 | 147.04878 | 35910 ft | 440 kts | 243° |
| 2026-05-06 07:29 | -36.71853 | 147.01737 | 35623 ft | 442 kts | 243° |
| 2026-05-06 07:29 | -36.73595 | 146.98512 | 35286 ft | 446 kts | 242° |
| 2026-05-06 07:29 | -36.75328 | 146.95303 | 35043 ft | 447 kts | 242° |
| 2026-05-06 07:29 | -36.77058 | 146.92101 | 34874 ft | 445 kts | 243° |
| 2026-05-06 07:30 | -36.78773 | 146.88922 | 34713 ft | 444 kts | 242° |
| 2026-05-06 07:30 | -36.80493 | 146.85730 | 34444 ft | 441 kts | 243° |
| 2026-05-06 07:30 | -36.82198 | 146.82565 | 33680 ft | 440 kts | 243° |
| 2026-05-06 07:30 | -36.83905 | 146.79390 | 32777 ft | 441 kts | 243° |
| 2026-05-06 07:31 | -36.85604 | 146.76227 | 31898 ft | 441 kts | 243° |
| 2026-05-06 07:31 | -36.87318 | 146.73033 | 31031 ft | 441 kts | 243° |
| 2026-05-06 07:31 | -36.89014 | 146.69873 | 30406 ft | 434 kts | 243° |
| 2026-05-06 07:31 | -36.90683 | 146.66762 | 29962 ft | 430 kts | 243° |
| 2026-05-06 07:32 | -36.92372 | 146.63596 | 29460 ft | 443 kts | 243° |
| 2026-05-06 07:32 | -36.94070 | 146.60417 | 28918 ft | 441 kts | 243° |
| 2026-05-06 07:32 | -36.95771 | 146.57239 | 28371 ft | 435 kts | 243° |
| 2026-05-06 07:32 | -36.97429 | 146.54135 | 27836 ft | 430 kts | 243° |
| 2026-05-06 07:33 | -36.99088 | 146.51027 | 27307 ft | 427 kts | 243° |
| 2026-05-06 07:33 | -37.00720 | 146.47966 | 26762 ft | 425 kts | 243° |
| 2026-05-06 07:33 | -37.02342 | 146.44917 | 26223 ft | 421 kts | 243° |
| 2026-05-06 07:33 | -37.03964 | 146.41870 | 25689 ft | 416 kts | 243° |
| 2026-05-06 07:34 | -37.05551 | 146.38884 | 25142 ft | 413 kts | 243° |
| 2026-05-06 07:34 | -37.07127 | 146.35916 | 24600 ft | 409 kts | 243° |
| 2026-05-06 07:34 | -37.08695 | 146.32962 | 24068 ft | 405 kts | 243° |
| 2026-05-06 07:34 | -37.10228 | 146.30067 | 23537 ft | 403 kts | 243° |
| 2026-05-06 07:35 | -37.11778 | 146.27138 | 22998 ft | 399 kts | 243° |
| 2026-05-06 07:35 | -37.13298 | 146.24266 | 22459 ft | 396 kts | 243° |
| 2026-05-06 07:35 | -37.14826 | 146.21374 | 21892 ft | 394 kts | 243° |
| 2026-05-06 07:35 | -37.16323 | 146.18541 | 21333 ft | 390 kts | 243° |
| 2026-05-06 07:36 | -37.17810 | 146.15721 | 20805 ft | 387 kts | 243° |
| 2026-05-06 07:36 | -37.19293 | 146.12911 | 20264 ft | 385 kts | 243° |
| 2026-05-06 07:36 | -37.20755 | 146.10133 | 19729 ft | 382 kts | 243° |
| 2026-05-06 07:36 | -37.22218 | 146.07355 | 19203 ft | 377 kts | 242° |
| 2026-05-06 07:37 | -37.23640 | 146.04652 | 18652 ft | 374 kts | 242° |
| 2026-05-06 07:37 | -37.25071 | 146.01930 | 18102 ft | 372 kts | 242° |
| 2026-05-06 07:37 | -37.26481 | 145.99246 | 17575 ft | 368 kts | 242° |
| 2026-05-06 07:37 | -37.27884 | 145.96570 | 17036 ft | 366 kts | 242° |
| 2026-05-06 07:38 | -37.29292 | 145.93886 | 16491 ft | 363 kts | 242° |
| 2026-05-06 07:38 | -37.30677 | 145.91243 | 15961 ft | 360 kts | 242° |
| 2026-05-06 07:38 | -37.32047 | 145.88632 | 15433 ft | 358 kts | 242° |
| 2026-05-06 07:38 | -37.33410 | 145.86040 | 14895 ft | 356 kts | 242° |
| 2026-05-06 07:39 | -37.34769 | 145.83450 | 14362 ft | 352 kts | 242° |
| 2026-05-06 07:39 | -37.36092 | 145.80930 | 13839 ft | 350 kts | 241° |
| 2026-05-06 07:39 | -37.37428 | 145.78380 | 13313 ft | 348 kts | 241° |
| 2026-05-06 07:39 | -37.38759 | 145.75839 | 12787 ft | 345 kts | 241° |
| 2026-05-06 07:40 | -37.40072 | 145.73329 | 12260 ft | 344 kts | 241° |
| 2026-05-06 07:40 | -37.41387 | 145.70815 | 11728 ft | 342 kts | 241° |
| 2026-05-06 07:40 | -37.42681 | 145.68338 | 11207 ft | 340 kts | 241° |
| 2026-05-06 07:40 | -37.43973 | 145.65828 | 10786 ft | 330 kts | 244° |
| 2026-05-06 07:41 | -37.44719 | 145.63231 | 10691 ft | 312 kts | 263° |
| 2026-05-06 07:41 | -37.44902 | 145.60603 | 10607 ft | 294 kts | 270° |
| 2026-05-06 07:41 | -37.44958 | 145.58101 | 10502 ft | 279 kts | 272° |
| 2026-05-06 07:41 | -37.44964 | 145.55719 | 10394 ft | 266 kts | 272° |
| 2026-05-06 07:42 | -37.44949 | 145.53444 | 10286 ft | 254 kts | 273° |
| 2026-05-06 07:42 | -37.44927 | 145.51254 | 10178 ft | 244 kts | 273° |
| 2026-05-06 07:42 | -37.44904 | 145.49170 | 10053 ft | 236 kts | 274° |
| 2026-05-06 07:42 | -37.44878 | 145.47076 | 9739 ft | 247 kts | 273° |
| 2026-05-06 07:43 | -37.44852 | 145.44899 | 9404 ft | 248 kts | 273° |
| 2026-05-06 07:43 | -37.44828 | 145.42734 | 9116 ft | 246 kts | 273° |
| 2026-05-06 07:43 | -37.44803 | 145.40604 | 8861 ft | 245 kts | 273° |
| 2026-05-06 07:43 | -37.44778 | 145.38441 | 8711 ft | 244 kts | 272° |
| 2026-05-06 07:44 | -37.44752 | 145.36317 | 8562 ft | 245 kts | 273° |
| 2026-05-06 07:44 | -37.44725 | 145.34184 | 8402 ft | 244 kts | 273° |
| 2026-05-06 07:44 | -37.44699 | 145.32045 | 8241 ft | 242 kts | 273° |
| 2026-05-06 07:44 | -37.44672 | 145.29923 | 8079 ft | 242 kts | 273° |
| 2026-05-06 07:45 | -37.44644 | 145.27818 | 7916 ft | 242 kts | 273° |
| 2026-05-06 07:45 | -37.44617 | 145.25703 | 7753 ft | 241 kts | 272° |
| 2026-05-06 07:45 | -37.44589 | 145.23595 | 7594 ft | 241 kts | 272° |
| 2026-05-06 07:45 | -37.44561 | 145.21497 | 7436 ft | 240 kts | 272° |
| 2026-05-06 07:46 | -37.44532 | 145.19392 | 7273 ft | 239 kts | 272° |
| 2026-05-06 07:46 | -37.44504 | 145.17310 | 7111 ft | 239 kts | 272° |
| 2026-05-06 07:46 | -37.44475 | 145.15224 | 6948 ft | 238 kts | 272° |
| 2026-05-06 07:46 | -37.44445 | 145.13155 | 6786 ft | 238 kts | 272° |
| 2026-05-06 07:47 | -37.44415 | 145.11058 | 6621 ft | 237 kts | 272° |
| 2026-05-06 07:47 | -37.44384 | 145.08984 | 6461 ft | 236 kts | 272° |
| 2026-05-06 07:47 | -37.44354 | 145.06938 | 6302 ft | 235 kts | 272° |
| 2026-05-06 07:47 | -37.44323 | 145.04866 | 6135 ft | 234 kts | 272° |
| 2026-05-06 07:48 | -37.44293 | 145.02840 | 5970 ft | 228 kts | 272° |
| 2026-05-06 07:48 | -37.44263 | 145.00885 | 5817 ft | 224 kts | 272° |
| 2026-05-06 07:48 | -37.44233 | 144.98935 | 5670 ft | 223 kts | 272° |
| 2026-05-06 07:48 | -37.44202 | 144.96967 | 5519 ft | 225 kts | 272° |
| 2026-05-06 07:49 | -37.44173 | 144.95012 | 5366 ft | 224 kts | 271° |
| 2026-05-06 07:49 | -37.44338 | 144.93056 | 5244 ft | 217 kts | 263° |
| 2026-05-06 07:49 | -37.44597 | 144.91235 | 5087 ft | 206 kts | 262° |
| 2026-05-06 07:49 | -37.44846 | 144.89510 | 4944 ft | 196 kts | 263° |
| 2026-05-06 07:50 | -37.45086 | 144.87816 | 4595 ft | 198 kts | 263° |
| 2026-05-06 07:50 | -37.45325 | 144.86125 | 4300 ft | 191 kts | 263° |
| 2026-05-06 07:50 | -37.45550 | 144.84541 | 4228 ft | 181 kts | 264° |
| 2026-05-06 07:50 | -37.45768 | 144.82997 | 4181 ft | 177 kts | 264° |
| 2026-05-06 07:51 | -37.46141 | 144.81491 | 4138 ft | 182 kts | 243° |
| 2026-05-06 07:51 | -37.47065 | 144.80467 | 4025 ft | 172 kts | 212° |
| 2026-05-06 07:51 | -37.48211 | 144.80219 | 3792 ft | 168 kts | 187° |
| 2026-05-06 07:51 | -37.49367 | 144.80482 | 3569 ft | 165 kts | 173° |
| 2026-05-06 07:52 | -37.50504 | 144.80762 | 3362 ft | 167 kts | 177° |
| 2026-05-06 07:52 | -37.51652 | 144.80971 | 3123 ft | 166 kts | 178° |
| 2026-05-06 07:52 | -37.52780 | 144.81174 | 2913 ft | 163 kts | 178° |
| 2026-05-06 07:52 | -37.53934 | 144.81384 | 2684 ft | 166 kts | 177° |
| 2026-05-06 07:53 | -37.55081 | 144.81595 | 2448 ft | 167 kts | 177° |
| 2026-05-06 07:53 | -37.56232 | 144.81808 | 2227 ft | 167 kts | 176° |
| 2026-05-06 07:53 | -37.57383 | 144.82021 | 1999 ft | 167 kts | 176° |
| 2026-05-06 07:53 | -37.58539 | 144.82236 | 1807 ft | 166 kts | 175° |
| 2026-05-06 07:54 | -37.59685 | 144.82448 | 1567 ft | 167 kts | 175° |
| 2026-05-06 07:54 | -37.60839 | 144.82661 | 1352 ft | 166 kts | 175° |
| 2026-05-06 07:54 | -37.61985 | 144.82872 | 1126 ft | 166 kts | 174° |
| 2026-05-06 07:54 | -37.63122 | 144.83072 | 992 ft | 166 kts | 173° |
| 2026-05-06 07:55 | -37.64261 | 144.83281 | 773 ft | 165 kts | 173° |
| 2026-05-06 07:55 | -37.65390 | 144.83502 | 518 ft | 165 kts | 173° |
| 2026-05-06 07:55 | -37.66462 | 144.83682 | 449 ft | 136 kts | 162° |
| 2026-05-06 07:55 | -37.67256 | 144.83853 | 449 ft | 97 kts | 173° |
| 2026-05-06 07:56 | -37.67726 | 144.83940 | 448 ft | 17 kts | 172° |
| 2026-05-06 07:56 | -37.67845 | 144.83995 | 448 ft | 17 kts | 134° |
| 2026-05-06 07:56 | -37.67872 | 144.84065 | 448 ft | 0 kts | 96° |
| 2026-05-06 07:57 | -37.67873 | 144.84080 | 448 ft | 4 kts | 91° |
| 2026-05-06 07:58 | -37.67870 | 144.84143 | 448 ft | 9 kts | 83° |
| 2026-05-06 07:58 | -37.67858 | 144.84242 | 448 ft | 13 kts | 82° |
| 2026-05-06 07:58 | -37.67811 | 144.84351 | 448 ft | 16 kts | 34° |
| 2026-05-06 07:58 | -37.67704 | 144.84366 | 448 ft | 17 kts | 352° |
| 2026-05-06 07:59 | -37.67576 | 144.84340 | 449 ft | 19 kts | 351° |
| 2026-05-06 07:59 | -37.67431 | 144.84315 | 449 ft | 22 kts | 352° |
| 2026-05-06 07:59 | -37.67267 | 144.84283 | 449 ft | 24 kts | 350° |
| 2026-05-06 07:59 | -37.67112 | 144.84255 | 449 ft | 18 kts | 352° |
| 2026-05-06 08:00 | -37.66978 | 144.84229 | 449 ft | 20 kts | 350° |
| 2026-05-06 08:00 | -37.66823 | 144.84199 | 449 ft | 23 kts | 352° |
| 2026-05-06 08:00 | -37.66779 | 144.84192 | 449 ft | 3 kts | 350° |
| 2026-05-06 08:00 | -37.66737 | 144.84183 | 449 ft | 8 kts | 350° |
| 2026-05-06 08:01 | -37.66726 | 144.84184 | 449 ft | 0 kts | 21° |
| 2026-05-06 08:01 | -37.66714 | 144.84198 | 449 ft | 4 kts | 56° |
| 2026-05-06 08:01 | -37.66698 | 144.84253 | 449 ft | 8 kts | 73° |
| 2026-05-06 08:01 | -37.66685 | 144.84346 | 449 ft | 12 kts | 82° |
| 2026-05-06 08:02 | -37.66681 | 144.84372 | 449 ft | 3 kts | 80° |
| 2026-05-06 08:02 | -37.66673 | 144.84433 | 449 ft | 8 kts | 80° |
| 2026-05-06 08:02 | -37.66667 | 144.84482 | 449 ft | 7 kts | 81° |
| 2026-05-06 08:02 | -37.66675 | 144.84514 | 449 ft | 5 kts | 142° |
| 2026-05-06 08:03 | -37.66722 | 144.84535 | 449 ft | 6 kts | 167° |
| 2026-05-06 08:03 | -37.66752 | 144.84543 | 449 ft | 2 kts | 171° |
| 2026-05-06 08:03 | -37.66756 | 144.84544 | 449 ft | 0 kts | 171° |